Time;durP1;ratioP1;P1;durP2;ratioP2;P2;SDS_P1;SDS_P2;PMS_P1;PMS_P2;Temp;Humidity;BMP_temperature;BMP_pressure;BME280_temperature;BME280_humidity;BME280_pressure;Samples;Min_cycle;Max_cycle;Signal;HPM_P1;HPM_P2
2022/08/02 00:02:22;;;;;;;3.33;1.10;;;30.20;29.70;;;;;;6303852;28;20120;-77
2022/08/02 00:05:23;;;;;;;1.08;0.82;;;30.20;29.80;;;;;;6304270;28;20036;-75
2022/08/02 00:08:24;;;;;;;1.42;0.95;;;30.20;29.80;;;;;;6303525;28;20507;-76
2022/08/02 00:11:25;;;;;;;2.65;1.08;;;30.10;29.80;;;;;;6304513;28;20036;-77
2022/08/02 00:14:26;;;;;;;1.55;0.80;;;30.10;29.80;;;;;;6301946;28;20036;-77
2022/08/02 00:17:26;;;;;;;1.92;0.90;;;30.00;29.90;;;;;;6304282;28;20469;-77
2022/08/02 00:20:27;;;;;;;3.40;1.10;;;30.00;30.00;;;;;;6303682;28;20123;-77
2022/08/02 00:23:29;;;;;;;1.45;1.00;;;29.90;30.20;;;;;;6296109;28;20038;-76
2022/08/02 00:26:30;;;;;;;1.08;0.98;;;29.80;30.40;;;;;;6303281;28;20478;-76
2022/08/02 00:29:31;;;;;;;1.33;1.20;;;29.70;30.60;;;;;;6303400;28;20484;-75
2022/08/02 00:32:32;;;;;;;1.15;1.05;;;29.50;30.80;;;;;;6298578;28;20025;-75
2022/08/02 00:35:35;;;;;;;2.47;1.00;;;29.40;31.10;;;;;;6318935;28;20040;-75
2022/08/02 00:38:36;;;;;;;2.35;1.10;;;29.40;31.10;;;;;;6304124;28;20032;-75
2022/08/02 00:41:45;;;;;;;3.45;1.05;;;29.30;31.30;;;;;;6304891;28;20366;-75
2022/08/02 00:44:46;;;;;;;1.05;0.90;;;29.30;31.40;;;;;;6307256;28;20032;-75
2022/08/02 00:47:47;;;;;;;1.10;0.98;;;29.30;31.10;;;;;;6302834;28;20476;-75
2022/08/02 00:50:48;;;;;;;2.40;0.70;;;29.30;31.10;;;;;;6305039;28;20040;-74
2022/08/02 00:53:49;;;;;;;2.78;1.00;;;29.20;31.10;;;;;;6304893;28;20067;-75
2022/08/02 00:56:50;;;;;;;1.40;1.02;;;29.20;31.20;;;;;;6296884;28;20098;-75
2022/08/02 00:59:51;;;;;;;1.48;1.05;;;29.10;31.30;;;;;;6298398;28;20113;-75
2022/08/02 01:02:52;;;;;;;1.02;0.95;;;29.10;31.40;;;;;;6297272;28;20123;-75
2022/08/02 01:05:53;;;;;;;0.73;0.73;;;29.00;31.50;;;;;;6297631;28;20476;-75
2022/08/02 01:08:54;;;;;;;1.35;0.80;;;28.90;31.50;;;;;;6297430;28;20572;-75
2022/08/02 01:11:55;;;;;;;5.20;1.20;;;28.80;31.90;;;;;;6281214;28;20484;-75
2022/08/02 01:14:59;;;;;;;2.10;1.13;;;28.70;32.10;;;;;;6298219;28;20080;-75
2022/08/02 01:18:02;;;;;;;1.13;1.00;;;28.70;32.40;;;;;;6280617;28;20040;-76
2022/08/02 01:21:55;;;;;;;1.27;0.80;;;28.60;32.50;;;;;;6299229;28;20044;-76
2022/08/02 01:25:33;;;;;;;4.88;1.10;;;28.50;33.00;;;;;;6195291;28;20508;-76
2022/08/02 01:28:47;;;;;;;3.47;1.30;;;28.50;33.30;;;;;;6193790;28;20034;-75
2022/08/02 01:32:11;;;;;;;2.97;1.08;;;28.50;33.30;;;;;;6154772;28;20038;-76
2022/08/02 01:35:21;;;;;;;5.32;1.23;;;28.50;33.40;;;;;;6172381;28;20061;-76
2022/08/02 01:38:34;;;;;;;2.10;1.10;;;28.60;33.30;;;;;;6193280;28;20047;-76
2022/08/02 01:41:36;;;;;;;3.88;1.20;;;28.50;33.30;;;;;;6179874;28;20038;-76
2022/08/02 01:44:41;;;;;;;5.38;1.27;;;28.50;33.40;;;;;;6130378;28;20038;-76
2022/08/02 01:47:43;;;;;;;1.85;1.20;;;28.50;33.50;;;;;;6175383;28;20042;-75
2022/08/02 01:50:47;;;;;;;8.15;1.10;;;28.50;33.40;;;;;;6196292;28;20062;-75
2022/08/02 01:53:50;;;;;;;4.03;1.20;;;28.60;33.50;;;;;;6195795;28;20061;-75
2022/08/02 01:56:52;;;;;;;1.55;1.15;;;28.40;33.50;;;;;;6163186;28;20042;-75
2022/08/02 01:59:56;;;;;;;1.58;1.08;;;28.40;33.60;;;;;;6204807;28;20065;-76
2022/08/02 02:02:59;;;;;;;1.70;1.08;;;28.30;33.70;;;;;;6287479;28;20456;-76
2022/08/02 02:06:03;;;;;;;4.50;1.20;;;28.30;33.90;;;;;;6285143;28;20033;-75
2022/08/02 02:09:04;;;;;;;3.25;1.63;;;28.40;34.00;;;;;;6295249;28;20430;-75
2022/08/02 02:12:06;;;;;;;1.27;1.02;;;28.50;34.00;;;;;;6297191;28;20060;-75
2022/08/02 02:15:10;;;;;;;1.40;1.02;;;28.50;33.80;;;;;;6294566;28;20040;-75
2022/08/02 02:18:17;;;;;;;1.23;0.85;;;28.50;34.20;;;;;;6295435;28;20032;-75
2022/08/02 02:21:18;;;;;;;1.10;1.00;;;28.50;33.50;;;;;;6293903;28;20123;-75
2022/08/02 02:24:19;;;;;;;1.70;1.02;;;28.40;33.40;;;;;;6266349;28;20105;-75
2022/08/02 02:27:23;;;;;;;3.85;1.38;;;28.40;33.50;;;;;;6277830;28;20032;-75
2022/08/02 02:30:27;;;;;;;1.75;0.90;;;28.30;33.40;;;;;;6282789;28;20041;-76
2022/08/02 02:33:30;;;;;;;1.15;1.00;;;28.20;33.40;;;;;;6302721;28;20057;-76
2022/08/02 02:36:32;;;;;;;1.20;0.80;;;28.20;33.50;;;;;;6291657;28;20048;-75
2022/08/02 02:39:36;;;;;;;3.20;1.00;;;28.20;33.60;;;;;;6274725;28;20039;-76
2022/08/02 02:42:38;;;;;;;2.42;1.20;;;28.10;33.60;;;;;;6294018;28;20090;-76
2022/08/02 02:45:40;;;;;;;2.50;0.98;;;28.10;33.70;;;;;;6296116;28;20036;-75
2022/08/02 02:48:41;;;;;;;4.30;1.13;;;28.10;33.70;;;;;;6296241;28;20032;-75
2022/08/02 02:51:44;;;;;;;1.80;1.00;;;28.10;33.80;;;;;;6293730;28;20040;-75
2022/08/02 02:54:47;;;;;;;1.27;0.98;;;28.00;33.90;;;;;;6296017;28;20041;-75
2022/08/02 02:57:49;;;;;;;1.92;0.98;;;28.00;34.10;;;;;;6272078;28;20094;-75
2022/08/02 03:04:11;;;;;;;0.80;0.80;;;27.90;34.20;;;;;;6293695;28;20043;-75
2022/08/02 03:07:12;;;;;;;1.10;1.00;;;27.90;34.40;;;;;;6293403;28;20184;-76
2022/08/02 03:10:13;;;;;;;3.13;1.15;;;27.90;34.50;;;;;;6293709;28;20432;-75
2022/08/02 03:13:15;;;;;;;2.30;1.00;;;27.80;34.60;;;;;;6293127;28;20094;-77
2022/08/02 03:16:16;;;;;;;0.80;0.80;;;27.70;34.70;;;;;;6294067;28;20040;-77
2022/08/02 03:19:18;;;;;;;0.95;0.88;;;27.70;34.80;;;;;;6293248;28;20372;-76
2022/08/02 03:22:19;;;;;;;1.48;0.93;;;27.70;34.90;;;;;;6294228;28;20033;-76
2022/08/02 03:25:20;;;;;;;1.42;1.02;;;27.60;34.90;;;;;;6293584;28;20106;-77
2022/08/02 03:28:21;;;;;;;3.10;1.00;;;27.60;35.00;;;;;;6285566;28;20047;-76
2022/08/02 03:31:22;;;;;;;1.10;0.93;;;27.50;35.00;;;;;;6296524;28;20438;-77
2022/08/02 03:34:23;;;;;;;1.98;1.20;;;27.50;35.30;;;;;;6293431;28;20051;-74
2022/08/02 03:37:26;;;;;;;7.50;0.93;;;27.40;35.50;;;;;;6293342;28;20465;-75
2022/08/02 03:40:27;;;;;;;1.75;1.13;;;27.30;35.50;;;;;;6293601;28;20131;-75
2022/08/02 03:43:29;;;;;;;1.83;0.90;;;27.30;35.60;;;;;;6291772;28;20102;-75
2022/08/02 03:46:31;;;;;;;4.07;1.23;;;27.30;35.60;;;;;;6277097;28;20036;-75
2022/08/02 03:49:35;;;;;;;6.43;1.23;;;27.30;35.70;;;;;;6293016;28;20036;-75
2022/08/02 03:52:36;;;;;;;8.38;2.00;;;27.30;35.90;;;;;;6277276;28;20032;-75
2022/08/02 03:55:38;;;;;;;1.48;1.30;;;27.30;36.10;;;;;;6293673;28;20174;-76
2022/08/02 03:58:41;;;;;;;2.10;1.30;;;27.30;36.10;;;;;;6292585;28;20048;-75
2022/08/02 04:01:42;;;;;;;3.15;1.00;;;27.40;36.20;;;;;;6293637;28;20104;-75
2022/08/02 04:04:43;;;;;;;2.53;1.48;;;27.50;36.10;;;;;;6292257;28;20041;-76
2022/08/02 04:07:44;;;;;;;1.40;1.20;;;27.60;36.00;;;;;;6276304;28;20093;-75
2022/08/02 04:14:09;;;;;;;3.10;1.00;;;27.60;35.80;;;;;;6289613;28;20120;-76
2022/08/02 04:17:12;;;;;;;5.28;1.20;;;27.50;35.80;;;;;;6290650;28;20102;-75
2022/08/02 04:20:20;;;;;;;2.00;1.17;;;27.40;36.00;;;;;;6308086;28;20185;-75
2022/08/02 04:23:23;;;;;;;1.38;0.98;;;27.30;36.10;;;;;;6265833;28;20346;-75
2022/08/02 04:26:24;;;;;;;1.75;1.40;;;27.20;36.20;;;;;;6278390;28;20028;-75
2022/08/02 04:29:26;;;;;;;2.58;1.10;;;27.20;36.40;;;;;;6297592;28;20052;-75
2022/08/02 04:32:28;;;;;;;3.05;1.00;;;27.10;36.50;;;;;;6293385;28;20032;-75
2022/08/02 04:35:29;;;;;;;5.55;1.45;;;27.10;36.60;;;;;;6297185;28;20043;-75
2022/08/02 04:38:30;;;;;;;2.85;1.30;;;27.00;36.60;;;;;;6258047;28;20031;-75
2022/08/02 04:41:57;;;;;;;3.40;1.17;;;26.90;36.60;;;;;;6296743;28;20033;-75
2022/08/02 04:44:58;;;;;;;2.20;1.17;;;26.90;36.80;;;;;;6273625;28;20036;-75
2022/08/02 04:47:59;;;;;;;1.98;1.33;;;26.90;36.80;;;;;;6296862;28;20044;-75
2022/08/02 04:51:00;;;;;;;2.90;1.50;;;26.80;36.80;;;;;;6296301;28;20037;-75
2022/08/02 04:54:01;;;;;;;2.75;1.50;;;26.80;36.90;;;;;;6297125;28;20037;-75
2022/08/02 04:57:53;;;;;;;1.63;1.15;;;26.80;37.00;;;;;;6296198;28;20045;-75
2022/08/02 05:00:25;;;;;;;3.67;1.40;;;26.80;37.10;;;;;;6296591;28;20436;-75
2022/08/02 05:03:26;;;;;;;1.63;1.05;;;26.80;37.10;;;;;;6267746;28;20037;-77
2022/08/02 05:06:27;;;;;;;1.45;1.08;;;26.90;37.10;;;;;;6297086;28;20052;-76
2022/08/02 05:09:28;;;;;;;3.83;1.70;;;26.90;37.20;;;;;;6279028;28;20033;-77
2022/08/02 05:12:29;;;;;;;2.53;1.35;;;26.90;37.40;;;;;;6296511;28;20059;-76
2022/08/02 05:15:30;;;;;;;4.72;1.20;;;26.80;37.50;;;;;;6295241;28;20114;-75
2022/08/02 05:18:31;;;;;;;1.88;1.13;;;26.80;37.60;;;;;;6296257;28;20090;-76
2022/08/02 05:21:32;;;;;;;2.05;1.40;;;26.70;37.60;;;;;;6280145;28;20430;-76
2022/08/02 05:24:33;;;;;;;2.67;1.08;;;26.70;37.60;;;;;;6297107;28;20045;-76
2022/08/02 05:27:34;;;;;;;2.85;1.70;;;26.70;37.60;;;;;;6279622;28;20449;-76
2022/08/02 05:30:34;;;;;;;3.47;1.67;;;26.70;37.60;;;;;;6279352;28;20070;-76
2022/08/02 05:33:35;;;;;;;11.80;1.83;;;26.70;37.80;;;;;;6296911;28;20040;-75
2022/08/02 05:36:36;;;;;;;15.30;2.38;;;26.70;38.00;;;;;;6279190;28;20043;-76
2022/08/02 05:39:37;;;;;;;15.77;2.20;;;26.90;38.10;;;;;;6295541;28;20040;-76
2022/08/02 05:42:38;;;;;;;10.88;2.00;;;27.00;38.10;;;;;;6279094;28;20048;-76
2022/08/02 05:45:39;;;;;;;5.22;1.48;;;27.00;37.90;;;;;;6296594;28;20040;-77
2022/08/02 05:48:40;;;;;;;2.72;1.40;;;27.10;38.20;;;;;;6295610;28;20068;-76
2022/08/02 05:52:08;;;;;;;2.38;1.45;;;27.00;38.70;;;;;;6278715;28;20029;-75
2022/08/02 05:55:19;;;;;;;8.63;1.30;;;26.80;38.90;;;;;;6292136;28;20036;-77
2022/08/02 05:58:34;;;;;;;1.77;1.20;;;26.70;39.20;;;;;;6277506;28;20029;-76
2022/08/02 06:01:39;;;;;;;3.00;1.33;;;26.60;39.40;;;;;;6292238;28;20048;-78
2022/08/02 06:04:55;;;;;;;6.03;1.55;;;26.50;39.60;;;;;;6296409;28;20096;-77
2022/08/02 06:07:58;;;;;;;6.47;1.65;;;26.40;39.70;;;;;;6294869;28;20056;-77
2022/08/02 06:11:02;;;;;;;3.08;1.42;;;26.40;39.70;;;;;;6295587;28;20044;-75
2022/08/02 06:14:06;;;;;;;9.30;1.73;;;26.50;39.70;;;;;;6290620;28;20037;-75
2022/08/02 06:17:08;;;;;;;6.15;1.67;;;26.50;39.70;;;;;;6273190;28;20097;-75
2022/08/02 06:20:13;;;;;;;2.97;1.30;;;26.50;39.70;;;;;;6293830;28;20036;-76
2022/08/02 06:23:16;;;;;;;1.85;1.38;;;26.50;39.80;;;;;;6278490;28;20040;-76
2022/08/02 06:26:18;;;;;;;2.85;1.70;;;26.50;39.80;;;;;;6279428;28;20131;-77
2022/08/02 06:29:20;;;;;;;7.03;1.60;;;26.50;39.90;;;;;;6275253;28;20047;-76
2022/08/02 06:32:24;;;;;;;8.07;1.80;;;26.60;39.90;;;;;;6285484;28;20043;-77
2022/08/02 06:35:46;;;;;;;2.97;1.60;;;26.60;39.90;;;;;;6279041;28;20059;-77
2022/08/02 06:39:16;;;;;;;4.15;1.50;;;26.70;40.00;;;;;;6293296;28;20039;-75
2022/08/02 06:42:25;;;;;;;8.65;2.28;;;26.80;40.10;;;;;;6217214;28;20111;-76
2022/08/02 06:45:28;;;;;;;8.10;1.77;;;26.80;39.90;;;;;;6200593;28;20033;-77
2022/08/02 06:48:30;;;;;;;4.68;2.22;;;26.90;39.90;;;;;;6183298;28;20096;-75
2022/08/02 06:51:31;;;;;;;3.85;1.80;;;27.00;39.60;;;;;;6207302;28;20034;-75
2022/08/02 06:54:34;;;;;;;4.25;1.50;;;27.10;39.30;;;;;;6216810;28;20049;-76
2022/08/02 06:57:35;;;;;;;3.50;1.85;;;27.30;38.90;;;;;;6217605;28;20030;-76
2022/08/02 07:00:36;;;;;;;4.18;2.17;;;27.50;38.60;;;;;;6216029;28;20376;-75
2022/08/02 07:03:39;;;;;;;2.55;1.90;;;27.60;38.30;;;;;;6199216;28;20045;-77
2022/08/02 07:06:40;;;;;;;3.45;1.85;;;27.70;38.00;;;;;;6208723;28;20058;-76
2022/08/02 07:09:41;;;;;;;3.55;1.80;;;27.80;37.70;;;;;;6201809;28;20107;-75
2022/08/02 07:12:42;;;;;;;6.15;2.17;;;27.80;37.50;;;;;;6208595;28;20074;-77
2022/08/02 07:15:43;;;;;;;3.00;1.92;;;27.90;37.40;;;;;;6192939;28;20050;-76
2022/08/02 07:18:44;;;;;;;10.23;2.25;;;28.10;37.40;;;;;;6243906;28;20136;-76
2022/08/02 07:21:45;;;;;;;2.55;1.80;;;28.20;37.10;;;;;;6272004;28;20238;-77
2022/08/02 07:24:47;;;;;;;2.33;1.58;;;28.30;36.90;;;;;;6276338;28;20040;-75
2022/08/02 07:27:47;;;;;;;4.32;1.80;;;28.40;36.70;;;;;;6292127;28;20178;-76
2022/08/02 07:30:49;;;;;;;3.00;1.52;;;28.50;36.60;;;;;;6293771;28;20032;-76
2022/08/02 07:33:49;;;;;;;7.97;2.20;;;28.60;36.50;;;;;;6269367;28;20087;-77
2022/08/02 07:36:50;;;;;;;5.20;1.83;;;28.60;36.40;;;;;;6305347;28;20127;-77
2022/08/02 07:39:51;;;;;;;5.60;2.25;;;28.80;36.40;;;;;;6291444;28;20033;-77
2022/08/02 07:42:54;;;;;;;4.88;1.70;;;28.80;36.30;;;;;;6280465;28;20045;-76
2022/08/02 07:45:55;;;;;;;3.35;1.73;;;28.90;36.40;;;;;;6288791;28;20460;-76
2022/08/02 07:48:56;;;;;;;4.78;2.20;;;29.00;36.20;;;;;;6292756;28;20044;-77
2022/08/02 07:51:59;;;;;;;4.70;1.83;;;29.10;36.10;;;;;;6292683;28;20542;-77
2022/08/02 07:55:00;;;;;;;2.85;1.50;;;29.30;35.90;;;;;;6291809;28;20057;-76
2022/08/02 07:58:01;;;;;;;5.88;1.95;;;29.50;35.60;;;;;;6292327;28;20094;-77
2022/08/02 08:01:03;;;;;;;3.95;1.60;;;29.60;35.50;;;;;;6294983;28;20033;-76
2022/08/02 08:04:04;;;;;;;4.18;1.77;;;29.70;35.50;;;;;;6292619;28;20466;-75
2022/08/02 08:07:08;;;;;;;1.95;1.50;;;29.70;35.40;;;;;;6278278;28;20037;-76
2022/08/02 08:10:09;;;;;;;6.10;1.70;;;29.80;35.90;;;;;;6275548;28;20032;-76
2022/08/02 08:13:10;;;;;;;3.60;1.60;;;29.80;35.20;;;;;;6296923;28;20037;-76
2022/08/02 08:16:11;;;;;;;5.57;2.00;;;29.90;35.10;;;;;;6280153;28;20101;-77
2022/08/02 08:19:12;;;;;;;3.70;1.67;;;30.00;34.90;;;;;;6293743;28;20028;-76
2022/08/02 08:22:13;;;;;;;8.27;1.83;;;30.10;34.70;;;;;;6295893;28;20183;-76
2022/08/02 08:25:14;;;;;;;12.57;2.33;;;30.30;34.50;;;;;;6296987;28;20040;-76
2022/08/02 08:28:15;;;;;;;8.93;1.67;;;30.40;34.40;;;;;;6297432;28;20060;-77
2022/08/02 08:31:16;;;;;;;8.10;2.05;;;30.40;34.20;;;;;;6296003;28;20120;-77
2022/08/02 08:34:17;;;;;;;4.93;1.70;;;30.50;34.20;;;;;;6293973;28;20361;-76
2022/08/02 08:37:18;;;;;;;9.10;1.80;;;30.60;34.10;;;;;;6271457;28;20049;-77
2022/08/02 08:40:19;;;;;;;7.05;1.75;;;30.70;33.90;;;;;;6286205;28;20039;-76
2022/08/02 08:43:20;;;;;;;10.23;1.60;;;30.80;33.80;;;;;;6301151;28;20036;-76
2022/08/02 08:46:30;;;;;;;9.00;1.60;;;30.80;33.70;;;;;;6311824;28;20051;-76
2022/08/02 08:49:35;;;;;;;3.00;1.83;;;30.90;33.70;;;;;;6296437;28;20050;-77
2022/08/02 08:52:51;;;;;;;3.85;1.80;;;30.90;33.60;;;;;;6298403;28;20126;-76
2022/08/02 08:55:55;;;;;;;5.93;1.80;;;31.00;33.50;;;;;;6295451;28;20049;-76
2022/08/02 08:58:56;;;;;;;5.40;1.83;;;31.00;33.90;;;;;;6299578;28;20043;-77
2022/08/02 09:02:00;;;;;;;2.00;1.65;;;31.10;34.00;;;;;;6276006;28;20341;-77
2022/08/02 09:05:02;;;;;;;5.53;1.90;;;31.30;33.40;;;;;;6272317;28;20453;-76
2022/08/02 09:08:05;;;;;;;9.85;1.80;;;31.30;33.20;;;;;;6295707;28;20116;-76
2022/08/02 09:11:17;;;;;;;4.63;1.90;;;31.50;33.10;;;;;;6296290;28;20052;-76
2022/08/02 09:14:28;;;;;;;2.97;1.70;;;31.60;32.90;;;;;;6296763;28;20051;-77
2022/08/02 09:17:30;;;;;;;6.32;1.65;;;31.70;32.90;;;;;;6296404;28;20028;-76
2022/08/02 09:20:51;;;;;;;15.50;1.77;;;31.70;32.90;;;;;;6295174;28;20032;-75
2022/08/02 09:23:52;;;;;;;2.90;1.70;;;31.70;32.90;;;;;;6294810;28;20043;-75
2022/08/02 09:26:52;;;;;;;4.88;1.98;;;31.80;32.90;;;;;;6295891;28;20041;-75
2022/08/02 09:29:54;;;;;;;13.07;4.28;;;31.90;32.60;;;;;;6295258;28;20029;-77
2022/08/02 09:32:55;;;;;;;4.13;2.00;;;31.90;32.60;;;;;;6292935;28;20093;-78
2022/08/02 09:36:03;;;;;;;3.63;1.90;;;32.00;32.60;;;;;;6294005;28;20477;-76
2022/08/02 09:39:06;;;;;;;2.47;1.73;;;32.00;32.50;;;;;;6296092;28;20032;-76
2022/08/02 09:42:09;;;;;;;8.55;1.40;;;32.10;32.50;;;;;;6312993;28;20045;-76
2022/08/02 09:45:10;;;;;;;1.73;1.48;;;32.20;32.20;;;;;;6296759;28;20139;-78
2022/08/02 09:48:11;;;;;;;4.85;1.80;;;32.20;31.90;;;;;;6295730;28;20043;-77
2022/08/02 09:51:12;;;;;;;1.52;1.35;;;32.30;32.80;;;;;;6296445;28;20037;-77
2022/08/02 09:54:27;;;;;;;2.65;1.77;;;32.30;32.30;;;;;;6297440;28;20468;-76
2022/08/02 09:57:29;;;;;;;3.30;1.80;;;32.40;32.30;;;;;;6295549;28;20544;-77
2022/08/02 10:00:30;;;;;;;2.08;1.40;;;32.40;31.90;;;;;;6273963;28;20436;-78
2022/08/02 10:03:31;;;;;;;2.67;1.77;;;32.50;31.50;;;;;;6303021;28;20036;-76
2022/08/02 10:06:33;;;;;;;6.30;1.83;;;32.60;31.60;;;;;;6296447;28;20048;-74
2022/08/02 10:09:34;;;;;;;3.67;2.20;;;32.50;31.70;;;;;;6295887;28;20354;-73
2022/08/02 10:12:36;;;;;;;5.28;2.00;;;32.50;31.90;;;;;;6293944;28;20489;-73
2022/08/02 10:15:38;;;;;;;2.30;1.70;;;32.50;31.90;;;;;;6295325;28;20116;-74
2022/08/02 10:18:39;;;;;;;3.05;1.88;;;32.60;32.00;;;;;;6295308;28;20346;-73
2022/08/02 10:21:55;;;;;;;3.35;1.88;;;32.70;32.10;;;;;;6295530;28;20094;-72
2022/08/02 10:24:56;;;;;;;3.45;1.70;;;32.70;32.00;;;;;;6295685;28;20050;-73
2022/08/02 10:27:57;;;;;;;2.70;1.67;;;32.80;32.00;;;;;;6295520;28;20362;-72
2022/08/02 10:31:04;;;;;;;3.78;2.28;;;32.80;32.00;;;;;;6292066;28;20060;-72
2022/08/02 10:34:09;;;;;;;4.35;2.42;;;32.90;32.00;;;;;;6294568;28;20032;-72
2022/08/02 10:37:12;;;;;;;4.50;2.10;;;32.90;31.90;;;;;;6294800;28;20032;-73
2022/08/02 10:40:22;;;;;;;3.50;2.00;;;33.00;31.90;;;;;;6294614;28;20476;-72
2022/08/02 10:43:35;;;;;;;5.32;1.98;;;33.10;31.80;;;;;;6296228;28;20085;-73
2022/08/02 10:46:36;;;;;;;8.13;1.73;;;33.10;31.70;;;;;;6295733;28;20089;-72
2022/08/02 10:49:53;;;;;;;3.42;1.70;;;33.20;31.50;;;;;;6296263;28;20059;-72
2022/08/02 10:53:27;;;;;;;6.63;1.77;;;33.30;31.50;;;;;;6312218;28;20040;-72
2022/08/02 10:56:49;;;;;;;5.13;2.00;;;33.30;31.30;;;;;;6292266;28;20435;-72
2022/08/02 10:59:54;;;;;;;3.67;1.65;;;33.40;31.20;;;;;;6295921;28;20032;-73
2022/08/02 11:02:55;;;;;;;2.45;1.75;;;33.50;31.10;;;;;;6295171;28;20173;-73
2022/08/02 11:06:23;;;;;;;5.03;1.83;;;33.80;30.60;;;;;;6294343;28;20040;-72
2022/08/02 11:09:29;;;;;;;6.10;1.70;;;34.50;29.90;;;;;;6291209;28;20412;-72
2022/08/02 11:12:29;;;;;;;2.60;1.67;;;35.10;29.20;;;;;;6295812;28;20438;-72
2022/08/02 11:15:52;;;;;;;3.75;1.60;;;35.70;28.60;;;;;;6296071;28;20059;-72
2022/08/02 11:18:56;;;;;;;5.20;1.80;;;36.20;28.10;;;;;;6274306;28;20033;-72
2022/08/02 11:22:01;;;;;;;2.92;1.60;;;36.60;27.60;;;;;;6293361;28;20767;-72
2022/08/02 11:25:23;;;;;;;2.47;1.70;;;36.90;27.30;;;;;;6292956;28;20044;-73
2022/08/02 11:28:24;;;;;;;3.70;1.80;;;37.30;27.00;;;;;;6293136;28;20028;-72
2022/08/02 11:31:25;;;;;;;1.63;1.50;;;37.40;26.80;;;;;;6291876;28;20028;-73
2022/08/02 11:34:27;;;;;;;6.80;1.90;;;37.60;26.60;;;;;;6292766;28;20043;-73
2022/08/02 11:37:35;;;;;;;5.32;1.67;;;37.50;26.50;;;;;;6291280;28;20072;-72
2022/08/02 11:40:39;;;;;;;4.20;1.92;;;37.40;26.70;;;;;;6293271;28;20037;-74
2022/08/02 11:43:40;;;;;;;3.78;1.55;;;37.50;26.60;;;;;;6292051;28;20044;-73
2022/08/02 11:46:41;;;;;;;3.15;1.60;;;37.60;26.50;;;;;;6291761;28;20067;-74
2022/08/02 11:49:43;;;;;;;2.88;1.63;;;37.70;26.30;;;;;;6291669;28;20051;-74
2022/08/02 11:52:44;;;;;;;4.57;1.48;;;37.70;26.30;;;;;;6265836;28;20075;-72
2022/08/02 11:55:45;;;;;;;1.50;1.40;;;37.70;26.30;;;;;;6267953;28;20175;-72
2022/08/02 11:59:08;;;;;;;4.57;1.50;;;37.90;26.30;;;;;;6287893;28;20041;-72
2022/08/02 12:02:09;;;;;;;6.45;1.60;;;38.00;26.10;;;;;;6292113;28;20093;-72
2022/08/02 12:05:15;;;;;;;3.38;1.65;;;38.20;25.90;;;;;;6291500;28;20039;-72
2022/08/02 12:08:18;;;;;;;2.63;1.38;;;38.40;25.80;;;;;;6292462;28;20130;-72
2022/08/02 12:11:19;;;;;;;2.60;1.45;;;38.50;25.60;;;;;;6292493;28;20033;-73
2022/08/02 12:14:20;;;;;;;3.40;1.55;;;38.70;25.50;;;;;;6290999;28;20112;-72
2022/08/02 12:20:45;;;;;;;4.82;1.50;;;38.90;25.00;;;;;;6265826;28;20040;-74
2022/08/02 12:23:46;;;;;;;3.50;1.70;;;39.10;24.80;;;;;;6289311;28;20067;-72
2022/08/02 12:26:47;;;;;;;2.40;1.42;;;38.90;24.80;;;;;;6291385;28;20039;-73
2022/08/02 12:30:05;;;;;;;8.27;1.67;;;39.00;24.70;;;;;;6291733;28;20056;-74
2022/08/02 12:33:09;;;;;;;2.95;1.40;;;39.10;24.50;;;;;;6289808;28;20037;-73
2022/08/02 12:36:20;;;;;;;2.13;1.30;;;39.30;24.40;;;;;;6292461;28;20033;-73
2022/08/02 12:39:42;;;;;;;4.53;1.65;;;39.30;24.10;;;;;;6291255;28;20039;-73
2022/08/02 12:42:51;;;;;;;5.90;1.50;;;39.20;24.10;;;;;;6292814;28;20119;-73
2022/08/02 12:45:55;;;;;;;3.90;1.40;;;39.10;24.20;;;;;;6308675;28;20046;-73
2022/08/02 12:48:56;;;;;;;3.40;1.30;;;39.40;24.00;;;;;;6298202;28;20051;-73
2022/08/02 12:51:57;;;;;;;8.10;1.58;;;39.80;23.60;;;;;;6297412;28;20063;-73
2022/08/02 12:54:58;;;;;;;4.00;1.30;;;40.20;23.30;;;;;;6296924;28;20053;-73
2022/08/02 12:58:01;;;;;;;5.78;1.23;;;40.50;22.90;;;;;;6296785;28;20025;-73
2022/08/02 13:01:02;;;;;;;7.70;1.50;;;40.90;22.60;;;;;;6297340;28;20025;-73
2022/08/02 13:04:04;;;;;;;9.73;2.30;;;41.20;22.30;;;;;;6295982;28;20215;-73
2022/08/02 13:07:05;;;;;;;1.23;1.13;;;41.70;21.90;;;;;;6297150;28;20028;-73
2022/08/02 13:10:06;;;;;;;3.83;1.30;;;42.10;21.50;;;;;;6297129;28;20128;-74
2022/08/02 13:13:07;;;;;;;4.00;1.35;;;42.30;21.10;;;;;;6298257;28;20032;-73
2022/08/02 13:16:09;;;;;;;4.28;1.25;;;42.20;21.10;;;;;;6312885;28;20535;-73
2022/08/02 13:19:12;;;;;;;2.80;1.15;;;42.40;21.00;;;;;;6298009;28;20040;-72
2022/08/02 13:22:16;;;;;;;2.47;1.52;;;42.60;20.80;;;;;;6296924;28;20047;-73
2022/08/02 13:25:21;;;;;;;2.95;1.30;;;43.20;20.50;;;;;;6296330;28;20093;-73
2022/08/02 13:28:22;;;;;;;1.38;1.10;;;43.60;20.00;;;;;;6279827;28;20119;-73
2022/08/02 13:31:23;;;;;;;2.50;1.08;;;43.90;19.80;;;;;;6297230;28;20130;-73
2022/08/02 13:34:23;;;;;;;5.10;1.20;;;44.50;19.40;;;;;;6304683;28;20036;-73
2022/08/02 13:37:25;;;;;;;2.55;1.20;;;45.00;19.00;;;;;;6295458;28;20440;-73
2022/08/02 13:40:26;;;;;;;8.77;1.38;;;45.20;18.80;;;;;;6296977;28;20040;-73
2022/08/02 13:43:26;;;;;;;4.70;1.50;;;45.80;18.40;;;;;;6295831;28;20105;-73
2022/08/02 13:46:27;;;;;;;4.55;1.13;;;46.40;18.00;;;;;;6279532;28;20040;-71
2022/08/02 13:49:29;;;;;;;2.97;1.10;;;46.40;17.80;;;;;;6295927;28;20028;-74
2022/08/02 13:52:29;;;;;;;2.45;1.10;;;46.20;17.90;;;;;;6286056;28;20029;-71
2022/08/02 13:55:30;;;;;;;2.22;1.02;;;46.30;17.80;;;;;;6293188;28;20466;-72
2022/08/02 13:58:32;;;;;;;4.43;1.15;;;46.50;17.70;;;;;;6296092;28;20037;-72
2022/08/02 14:01:32;;;;;;;2.60;1.17;;;46.40;17.50;;;;;;6296495;28;20041;-73
2022/08/02 14:04:34;;;;;;;2.50;1.10;;;46.40;17.60;;;;;;6296274;28;20398;-73
2022/08/02 14:07:35;;;;;;;3.25;1.15;;;46.50;17.40;;;;;;6296423;28;20032;-74
2022/08/02 14:10:36;;;;;;;2.35;1.40;;;46.50;17.40;;;;;;6296114;28;20056;-74
2022/08/02 14:13:37;;;;;;;2.00;1.40;;;46.50;17.30;;;;;;6296099;28;20139;-74
2022/08/02 14:16:38;;;;;;;5.25;2.35;;;46.30;17.30;;;;;;6294653;28;20571;-74
2022/08/02 14:19:39;;;;;;;1.35;1.00;;;46.00;17.40;;;;;;6296677;28;20051;-73
2022/08/02 14:22:40;;;;;;;6.72;1.08;;;46.00;17.30;;;;;;6294694;28;20040;-73
2022/08/02 14:25:41;;;;;;;4.82;1.13;;;46.10;17.90;;;;;;6294043;28;20063;-73
2022/08/02 14:28:42;;;;;;;5.57;1.08;;;46.50;17.30;;;;;;6294913;28;20041;-72
2022/08/02 14:31:43;;;;;;;7.22;1.15;;;46.70;16.90;;;;;;6295731;28;20043;-73
2022/08/02 14:34:44;;;;;;;1.55;1.13;;;46.50;17.00;;;;;;6295034;28;20477;-73
2022/08/02 14:37:45;;;;;;;1.10;1.00;;;46.90;16.70;;;;;;6295538;28;20047;-73
2022/08/02 14:40:46;;;;;;;4.53;1.02;;;46.90;17.10;;;;;;6295470;28;20044;-72
2022/08/02 14:44:05;;;;;;;3.45;1.00;;;46.70;16.60;;;;;;6294521;28;20394;-73
2022/08/02 14:47:06;;;;;;;5.13;1.00;;;46.30;16.70;;;;;;6294247;28;20028;-73
2022/08/02 14:50:08;;;;;;;2.60;1.50;;;46.30;16.70;;;;;;6293632;28;20419;-72
2022/08/02 14:53:09;;;;;;;4.88;1.25;;;45.90;16.80;;;;;;6295704;28;20051;-73
2022/08/02 14:56:09;;;;;;;2.95;0.90;;;45.20;17.30;;;;;;6294547;28;20327;-72
2022/08/02 14:59:10;;;;;;;4.10;1.05;;;44.10;18.00;;;;;;6293223;28;20028;-73
2022/08/02 15:02:11;;;;;;;3.42;1.00;;;42.90;18.80;;;;;;6293246;28;20035;-73
2022/08/02 15:05:12;;;;;;;1.48;1.00;;;41.80;19.70;;;;;;6294892;28;20036;-72
2022/08/02 15:08:13;;;;;;;1.83;1.05;;;40.80;20.50;;;;;;6294803;28;20083;-73
2022/08/02 15:11:14;;;;;;;1.20;1.00;;;39.80;21.20;;;;;;6292981;28;20046;-72
2022/08/02 15:14:19;;;;;;;3.20;1.00;;;39.10;21.70;;;;;;6293295;28;20040;-73
2022/08/02 15:17:20;;;;;;;2.22;0.90;;;38.60;22.20;;;;;;6293967;28;20383;-72
2022/08/02 15:20:21;;;;;;;2.20;0.90;;;38.00;22.50;;;;;;6293571;28;20032;-73
2022/08/02 15:23:23;;;;;;;2.83;1.10;;;37.80;22.70;;;;;;6293416;28;20055;-73
2022/08/02 15:26:24;;;;;;;1.35;0.88;;;37.60;22.80;;;;;;6292723;28;20043;-74
2022/08/02 15:29:25;;;;;;;1.20;1.00;;;37.60;22.90;;;;;;6294269;28;20063;-72
2022/08/02 15:32:26;;;;;;;4.18;0.80;;;38.10;22.60;;;;;;6291854;28;20043;-73
2022/08/02 15:35:27;;;;;;;1.38;1.02;;;39.60;21.40;;;;;;6294610;28;20128;-73
2022/08/02 15:38:28;;;;;;;1.75;0.90;;;41.00;20.10;;;;;;6281406;28;20120;-72
2022/08/02 15:41:29;;;;;;;3.63;1.08;;;42.10;19.50;;;;;;6289969;28;20150;-73
2022/08/02 15:44:30;;;;;;;1.05;0.90;;;42.70;19.00;;;;;;6274125;28;20044;-72
2022/08/02 15:47:31;;;;;;;2.33;0.80;;;43.30;18.60;;;;;;6292093;28;20749;-72
2022/08/02 15:50:32;;;;;;;0.77;0.77;;;44.00;17.90;;;;;;6294318;28;20437;-72
2022/08/02 15:53:32;;;;;;;1.90;0.82;;;44.70;17.50;;;;;;6293500;28;20032;-72
2022/08/02 15:56:33;;;;;;;0.93;0.80;;;45.30;16.90;;;;;;6293510;28;20372;-72
2022/08/02 15:59:34;;;;;;;1.30;0.93;;;45.60;16.70;;;;;;6289044;28;20036;-72
2022/08/02 16:02:35;;;;;;;1.80;0.85;;;45.70;16.60;;;;;;6292670;28;20029;-72
2022/08/02 16:05:36;;;;;;;2.63;1.15;;;45.50;16.70;;;;;;6275707;28;20040;-73